Philadelphia, New York
Current Conditions -  °F | °C
As of 8:18 PM on Friday 28 Nov 2014 (Local Time) from KGTB Reporting Station
Scattered Clouds Scattered Clouds  
Wind Chill: 19°   Ceiling: Unl
Heat Index: 19°   Visibility: 10mi
Dew Point: 12°   Wind: 3mph
Humidity: 74%   Direction: 260°W
Pressure: 30.17"   Gusts: NA
Location:  44.15°N, 75.71°W
Report Text: KGTB 290118Z AUTO 26003KT 10SM SCT024 SCT034 M07/M11 A3017 RMK AO2
Loading
Personal Weather Stations






























Interactive Weather Map New forecast layout! Learn more

10-Day Weather Forecast

Advertisements
Track Severe Weather on mobile